createdAt,value
2023-04-26T06:31:44.936Z,4.74
2023-04-26T06:32:44.902Z,4.74
2023-04-26T06:33:44.863Z,4.67
2023-04-26T06:34:44.987Z,4.68
2023-04-26T06:35:45.972Z,4.78
2023-04-26T06:36:45.998Z,4.80
2023-04-26T06:37:46.031Z,4.90
2023-04-26T06:38:45.924Z,4.92
2023-04-26T06:39:45.929Z,4.96
2023-04-26T06:40:45.919Z,5.07
2023-04-26T06:41:45.912Z,5.07
2023-04-26T06:42:45.925Z,5.21
2023-04-26T06:43:46.080Z,5.33
2023-04-26T06:44:45.870Z,5.39
2023-04-26T06:45:45.845Z,5.29
2023-04-26T06:46:45.929Z,5.36
2023-04-26T06:47:45.866Z,5.56
2023-04-26T06:48:45.820Z,5.54
2023-04-26T06:49:45.922Z,5.56
2023-04-26T06:50:45.820Z,5.72
2023-04-26T06:51:45.849Z,5.64
2023-04-26T06:52:45.790Z,5.71
2023-04-26T06:53:45.825Z,5.80
2023-04-26T06:54:55.881Z,5.93
2023-04-26T06:55:47.743Z,5.84
2023-04-26T06:56:45.771Z,6.08
2023-04-26T06:57:45.986Z,6.09
2023-04-26T06:58:45.690Z,6.08
2023-04-26T06:59:45.721Z,6.24
2023-04-26T07:00:45.703Z,6.31
2023-04-26T07:01:45.826Z,6.35
2023-04-26T07:02:45.791Z,6.41
2023-04-26T07:03:45.913Z,6.57
2023-04-26T07:04:45.932Z,6.70
2023-04-26T07:05:45.713Z,6.77
2023-04-26T07:06:45.839Z,6.79
2023-04-26T07:07:45.631Z,6.72
2023-04-26T07:08:45.625Z,6.67
2023-04-26T07:09:45.613Z,6.69
2023-04-26T07:10:45.594Z,6.72
2023-04-26T07:11:45.765Z,6.63
2023-04-26T07:12:45.602Z,6.72
2023-04-26T07:13:45.588Z,6.67
2023-04-26T07:14:45.636Z,6.72
2023-04-26T07:15:45.657Z,6.69
2023-04-26T07:16:45.613Z,6.72
2023-04-26T07:17:45.616Z,6.62
2023-04-26T07:18:45.545Z,6.59
2023-04-26T07:19:45.585Z,6.63
2023-04-26T07:20:45.479Z,6.72
2023-04-26T07:21:45.503Z,6.77
2023-04-26T07:22:45.470Z,6.92
2023-04-26T07:23:45.462Z,6.95
2023-04-26T07:24:45.455Z,6.89
2023-04-26T07:25:45.422Z,6.96
2023-04-26T07:26:45.494Z,7.13
2023-04-26T07:27:45.439Z,7.21
2023-04-26T07:28:45.489Z,7.24
2023-04-26T07:29:45.392Z,7.15
2023-04-26T07:30:45.388Z,7.33
2023-04-26T07:31:45.429Z,7.39
2023-04-26T07:32:45.432Z,7.38
2023-04-26T07:33:45.366Z,7.36
2023-04-26T07:34:45.397Z,7.51
2023-04-26T07:35:45.380Z,7.58
2023-04-26T07:36:45.341Z,7.67
2023-04-26T07:37:45.334Z,7.66
2023-04-26T07:38:45.315Z,7.80
2023-04-26T07:39:45.314Z,7.90
2023-04-26T07:40:45.307Z,8.06
2023-04-26T07:41:45.300Z,7.98
2023-04-26T07:42:45.282Z,8.06
2023-04-26T07:43:45.270Z,8.09
2023-04-26T07:44:45.271Z,8.06
2023-04-26T07:45:45.283Z,8.12
2023-04-26T07:46:45.274Z,8.09
2023-04-26T07:47:45.272Z,8.13
2023-04-26T07:48:45.229Z,8.08
2023-04-26T07:49:47.507Z,8.13
2023-04-26T07:50:46.183Z,8.10
2023-04-26T07:51:45.215Z,8.10
2023-04-26T07:52:45.160Z,8.15
2023-04-26T07:53:46.254Z,8.06
2023-04-26T07:54:45.157Z,8.08
2023-04-26T07:55:45.118Z,7.98
2023-04-26T07:56:45.153Z,7.91
2023-04-26T07:57:45.126Z,7.69
2023-04-26T07:58:45.113Z,7.69
2023-04-26T07:59:45.098Z,7.75
2023-04-26T08:00:45.090Z,7.94
2023-04-26T08:01:45.141Z,7.98
2023-04-26T08:02:45.707Z,8.12
2023-04-26T08:03:45.265Z,8.10
2023-04-26T08:04:45.179Z,8.20
2023-04-26T08:05:46.457Z,8.31
2023-04-26T08:06:45.045Z,8.31
2023-04-26T08:07:45.253Z,8.51
2023-04-26T08:08:45.071Z,8.67
2023-04-26T08:09:44.991Z,8.67
2023-04-26T08:10:44.965Z,8.67
2023-04-26T08:11:46.038Z,8.69
2023-04-26T08:12:44.962Z,8.71
2023-04-26T08:13:44.951Z,8.89
2023-04-26T08:14:44.945Z,9.11
2023-04-26T08:15:44.952Z,9.13
2023-04-26T08:16:44.976Z,9.21
2023-04-26T08:17:45.036Z,9.29
2023-04-26T08:18:46.768Z,9.28
2023-04-26T08:19:45.895Z,9.36
2023-04-26T08:20:44.882Z,9.39
2023-04-26T08:21:44.913Z,9.37
2023-04-26T08:22:44.846Z,9.39
2023-04-26T08:23:45.030Z,9.21
2023-04-26T08:24:44.847Z,9.19
2023-04-26T08:25:46.023Z,9.18
2023-04-26T08:26:44.862Z,9.02
2023-04-26T08:27:44.909Z,8.58
2023-04-26T08:28:44.909Z,8.37
2023-04-26T08:29:44.790Z,8.31
2023-04-26T08:30:44.834Z,8.23
2023-04-26T08:31:44.794Z,8.44
2023-04-26T08:32:44.805Z,8.41
2023-04-26T08:33:44.787Z,8.51
2023-04-26T08:34:44.779Z,8.63
2023-04-26T08:35:44.803Z,8.63
2023-04-26T08:36:44.727Z,8.38
2023-04-26T08:37:44.699Z,8.44
2023-04-26T08:38:44.695Z,8.44
2023-04-26T08:39:44.727Z,8.44
2023-04-26T08:40:45.455Z,8.37
2023-04-26T08:41:44.682Z,8.36
2023-04-26T08:42:44.668Z,8.42
2023-04-26T08:43:44.728Z,8.41
2023-04-26T08:44:44.718Z,8.53
2023-04-26T08:45:44.625Z,8.36
2023-04-26T08:46:44.753Z,8.48
2023-04-26T08:47:44.724Z,8.42
2023-04-26T08:48:44.594Z,8.56
2023-04-26T08:49:44.589Z,8.63
2023-04-26T08:50:44.579Z,8.78
2023-04-26T08:51:44.571Z,8.85
2023-04-26T08:52:44.612Z,8.88
2023-04-26T08:53:44.560Z,9.03
2023-04-26T08:54:44.584Z,8.99
2023-04-26T08:55:44.558Z,9.11
2023-04-26T08:56:44.521Z,9.29
2023-04-26T08:57:44.509Z,9.28
2023-04-26T08:58:44.517Z,9.41
2023-04-26T08:59:44.492Z,9.37
2023-04-26T09:00:44.464Z,9.44
2023-04-26T09:03:47.922Z,9.43
2023-04-26T09:05:05.597Z,9.54
2023-04-26T09:13:32.473Z,9.55
2023-04-26T09:14:36.152Z,9.51
2023-04-26T09:17:13.374Z,9.37
2023-04-26T09:18:13.876Z,9.44
2023-04-26T09:21:58.814Z,9.31
2023-04-26T09:26:48.688Z,9.44
2023-04-26T09:27:47.202Z,9.48
2023-04-26T09:29:58.582Z,9.55
2023-04-26T09:32:15.061Z,9.59
2023-04-26T09:40:50.718Z,9.31
2023-04-26T09:47:13.425Z,9.87
2023-04-26T09:48:21.856Z,9.98
2023-04-26T09:53:18.418Z,10.34
2023-04-26T09:58:18.126Z,10.31
2023-04-26T10:03:09.866Z,10.09
2023-04-26T10:04:33.757Z,10.23
2023-04-26T10:07:36.119Z,10.19
2023-04-26T10:11:10.945Z,10.22
2023-04-26T10:12:12.569Z,10.19
2023-04-26T10:14:13.527Z,10.30
2023-04-26T10:16:33.826Z,10.38
2023-04-26T10:21:08.654Z,10.15
2023-04-26T10:26:41.321Z,10.17
2023-04-26T10:29:56.157Z,10.28
2023-04-26T10:32:25.035Z,10.26
2023-04-26T10:34:54.075Z,10.33
2023-04-26T10:36:51.850Z,10.33
2023-04-26T10:39:20.859Z,10.41
2023-04-26T10:46:14.469Z,10.57
2023-04-26T10:54:56.847Z,10.86
2023-04-26T10:58:52.850Z,10.89
2023-04-26T11:01:32.922Z,10.40
2023-04-26T11:05:31.661Z,10.51
2023-04-26T11:06:59.962Z,10.42
2023-04-26T11:09:54.730Z,10.56
2023-04-26T11:11:45.147Z,10.60
2023-04-26T11:13:24.482Z,10.69
2023-04-26T11:18:20.084Z,11.14
2023-04-26T11:21:37.464Z,11.26
2023-04-26T11:23:29.466Z,11.40
2023-04-26T11:25:09.623Z,11.27
2023-04-26T11:27:51.573Z,11.25
2023-04-26T11:31:05.239Z,11.11
2023-04-26T11:35:44.428Z,11.22
2023-04-26T11:39:58.400Z,11.17
2023-04-26T11:41:59.306Z,11.12
2023-04-26T11:46:21.481Z,10.86
2023-04-26T11:47:22.049Z,10.78
2023-04-26T11:50:40.515Z,10.67
2023-04-26T11:53:26.782Z,10.84
2023-04-26T11:54:40.016Z,10.84
2023-04-26T11:58:59.120Z,10.90
2023-04-26T12:02:55.293Z,11.04
2023-04-26T12:07:31.312Z,11.08
2023-04-26T12:08:45.771Z,11.11
2023-04-26T12:11:13.024Z,11.02
2023-04-26T12:22:34.757Z,10.57
2023-04-26T12:28:34.515Z,11.08
2023-04-26T12:31:36.164Z,11.23
2023-04-26T12:33:05.761Z,11.22
2023-04-26T12:36:06.220Z,11.44
2023-04-26T12:39:56.203Z,11.78
2023-04-26T12:42:54.426Z,12.00
2023-04-26T12:47:52.866Z,11.83
2023-04-26T12:54:25.311Z,11.80
2023-04-26T13:00:28.688Z,12.12
2023-04-26T13:04:14.003Z,11.35
2023-04-26T13:12:02.675Z,11.70
2023-04-26T13:23:33.723Z,12.12
2023-04-26T13:33:00.459Z,12.21
2023-04-26T13:41:37.749Z,11.27
2023-04-26T13:52:18.522Z,11.50
2023-04-26T13:56:43.498Z,11.90
2023-04-26T14:05:23.840Z,11.95
2023-04-26T14:15:36.716Z,12.57
2023-04-26T14:20:55.786Z,12.87
2023-04-26T14:23:16.207Z,12.35
2023-04-26T14:28:08.516Z,12.49
2023-04-26T14:30:51.505Z,12.91
2023-04-26T14:33:14.421Z,14.69
2023-04-26T14:36:06.435Z,14.73
2023-04-26T14:38:26.697Z,14.88
2023-04-26T14:40:20.601Z,14.69
2023-04-26T14:40:36.420Z,14.37
2023-04-26T14:42:56.425Z,14.12
2023-04-26T14:46:34.482Z,12.95
2023-04-26T14:47:51.570Z,12.76
2023-04-26T14:50:10.558Z,12.67
2023-04-26T14:52:45.828Z,13.00
2023-04-26T14:55:34.583Z,13.37
2023-04-26T14:58:05.317Z,12.79
2023-04-26T15:03:26.823Z,12.78
2023-04-26T15:12:26.115Z,12.12
2023-04-26T15:13:58.357Z,11.97
2023-04-26T15:15:56.440Z,11.94
2023-04-26T15:17:39.735Z,11.88
2023-04-26T15:18:41.371Z,11.84
2023-04-26T15:20:21.054Z,11.78
2023-04-26T15:24:02.186Z,11.69
2023-04-26T15:24:56.458Z,11.60
2023-04-26T15:28:40.146Z,11.72
2023-04-26T15:30:41.075Z,11.66
2023-04-26T15:31:37.456Z,11.84
2023-04-26T15:36:11.663Z,11.86
2023-04-26T15:37:40.577Z,11.97
2023-04-26T15:39:50.298Z,11.80
2023-04-26T15:41:00.566Z,11.65
2023-04-26T15:41:52.164Z,11.59
2023-04-26T15:42:51.274Z,11.94
2023-04-26T15:43:49.804Z,12.82
2023-04-26T15:45:04.414Z,12.64
2023-04-26T15:46:23.871Z,12.80
2023-04-26T15:46:53.740Z,12.82
2023-04-26T15:47:52.753Z,13.31
2023-04-26T15:48:56.289Z,14.18
2023-04-26T15:50:25.178Z,14.43
2023-04-26T15:51:02.828Z,14.15
2023-04-26T15:51:53.515Z,13.85
2023-04-26T15:56:09.103Z,12.87
2023-04-26T16:00:05.555Z,12.40
2023-04-26T16:04:19.744Z,12.12
2023-04-26T16:05:42.668Z,12.04
2023-04-26T16:08:47.475Z,11.57
2023-04-26T16:09:52.789Z,11.45
2023-04-26T16:11:00.660Z,11.51
2023-04-26T16:12:30.782Z,11.48
2023-04-26T16:15:04.330Z,11.44
2023-04-26T16:16:43.447Z,11.32
2023-04-26T16:18:10.682Z,11.29
2023-04-26T16:18:56.117Z,11.43
2023-04-26T16:19:25.255Z,11.41
2023-04-26T16:21:20.996Z,11.17
2023-04-26T16:22:02.317Z,11.02
2023-04-26T16:23:08.938Z,11.00
2023-04-26T16:25:30.309Z,10.87
2023-04-26T16:26:44.039Z,10.76
2023-04-26T16:27:39.469Z,10.76
2023-04-26T16:28:45.639Z,10.71
2023-04-26T16:30:22.306Z,10.86
2023-04-26T16:31:32.915Z,10.74
2023-04-26T16:32:46.661Z,10.76
2023-04-26T16:34:36.156Z,10.89
2023-04-26T16:34:43.952Z,10.82
2023-04-26T16:35:43.413Z,10.79
2023-04-26T16:37:07.849Z,10.84
2023-04-26T16:39:40.250Z,10.89
2023-04-26T16:40:40.281Z,10.93
2023-04-26T16:41:40.283Z,10.99
2023-04-26T16:42:40.272Z,11.07
2023-04-26T16:43:40.212Z,11.11
2023-04-26T16:44:40.322Z,11.04
2023-04-26T16:45:40.275Z,11.29
2023-04-26T16:46:40.309Z,11.43
2023-04-26T16:47:40.216Z,11.51
2023-04-26T16:48:40.295Z,11.51
2023-04-26T16:49:40.141Z,11.35
2023-04-26T16:50:40.213Z,11.33
2023-04-26T16:51:41.285Z,11.30
2023-04-26T16:52:41.373Z,11.33
2023-04-26T16:53:41.314Z,11.36
2023-04-26T16:54:41.355Z,11.35
2023-04-26T16:55:41.523Z,11.25
2023-04-26T16:56:41.419Z,11.23
2023-04-26T16:57:41.256Z,11.32
2023-04-26T16:58:41.510Z,11.26
2023-04-26T16:59:41.280Z,11.54
2023-04-26T17:00:41.388Z,11.50
2023-04-26T17:01:42.464Z,11.57
2023-04-26T17:02:41.302Z,11.55
2023-04-26T17:03:41.354Z,11.62
2023-04-26T17:05:13.977Z,11.63
2023-04-26T17:05:41.537Z,11.63
2023-04-26T17:06:41.961Z,11.52
2023-04-26T17:07:41.156Z,11.43
2023-04-26T17:08:41.120Z,11.33
2023-04-26T17:10:14.077Z,11.15
2023-04-26T17:10:41.710Z,11.14
2023-04-26T17:11:42.118Z,11.00
2023-04-26T17:12:41.205Z,10.89
2023-04-26T17:13:41.118Z,10.64
2023-04-26T17:14:41.095Z,10.59
2023-04-26T17:15:41.205Z,10.51
2023-04-26T17:16:41.228Z,10.34
2023-04-26T17:17:41.084Z,10.40
2023-04-26T17:18:42.000Z,10.37
2023-04-26T17:19:41.082Z,10.28
2023-04-26T17:20:41.385Z,10.28
2023-04-26T17:21:41.008Z,10.26
2023-04-26T17:22:41.073Z,10.33
2023-04-26T17:23:41.066Z,10.28
2023-04-26T17:24:41.180Z,10.20
2023-04-26T17:25:41.294Z,10.20
2023-04-26T17:26:41.137Z,10.31
2023-04-26T17:27:41.051Z,10.46
2023-04-26T17:28:41.326Z,10.74
2023-04-26T17:29:41.067Z,10.78
2023-04-26T17:30:40.934Z,10.76
2023-04-26T17:31:40.941Z,10.61
2023-04-26T17:32:40.932Z,10.60
2023-04-26T17:33:40.834Z,10.60
2023-04-26T17:34:41.090Z,10.48
2023-04-26T17:35:40.896Z,10.42
2023-04-26T17:36:40.877Z,10.42
2023-04-26T17:37:40.857Z,10.38
2023-04-26T17:38:40.875Z,10.34
2023-04-26T17:39:40.877Z,10.35
2023-04-26T17:40:40.882Z,10.34
2023-04-26T17:41:40.842Z,10.37
2023-04-26T17:42:40.832Z,10.41
2023-04-26T17:43:40.881Z,10.35
2023-04-26T17:44:40.784Z,10.41
2023-04-26T17:45:40.819Z,10.56
2023-04-26T17:46:40.763Z,10.59
2023-04-26T17:47:40.758Z,10.60
2023-04-26T17:48:40.884Z,10.61
2023-04-26T17:49:40.780Z,10.67
2023-04-26T17:50:40.864Z,10.61
2023-04-26T17:51:40.790Z,10.57
2023-04-26T17:52:40.673Z,10.49
2023-04-26T17:53:40.719Z,10.40
2023-04-26T17:54:40.693Z,10.34
2023-04-26T17:55:40.751Z,10.22
2023-04-26T17:56:40.669Z,10.09
2023-04-26T17:57:40.851Z,10.02
2023-04-26T17:58:40.641Z,10.05
2023-04-26T17:59:40.629Z,9.94
2023-04-26T18:00:41.559Z,9.97
2023-04-26T18:01:40.688Z,9.95
2023-04-26T18:02:40.766Z,9.95
2023-04-26T18:03:40.919Z,9.83
2023-04-26T18:04:40.817Z,9.76
2023-04-26T18:05:40.594Z,9.76
2023-04-26T18:06:40.570Z,9.65
2023-04-26T18:07:40.584Z,9.72
2023-04-26T18:08:40.514Z,9.55
2023-04-26T18:09:40.608Z,9.56
2023-04-26T18:10:40.534Z,9.50
2023-04-26T18:11:40.864Z,9.51
2023-04-26T18:12:40.482Z,9.46
2023-04-26T18:13:40.515Z,9.34
2023-04-26T18:14:40.446Z,9.31
2023-04-26T18:15:40.541Z,9.25
2023-04-26T18:16:40.557Z,9.14
2023-04-26T18:17:40.587Z,9.04
2023-04-26T18:18:40.604Z,8.94
2023-04-26T18:19:40.696Z,8.84
2023-04-26T18:20:40.760Z,8.85
2023-04-26T18:21:40.521Z,8.78
2023-04-26T18:22:40.397Z,8.81
2023-04-26T18:23:41.349Z,8.64
2023-04-26T18:24:40.544Z,8.63
2023-04-26T18:25:40.433Z,8.58
2023-04-26T18:26:41.116Z,8.49
2023-04-26T18:27:40.359Z,8.58
2023-04-26T18:28:40.391Z,8.53
2023-04-26T18:29:40.358Z,8.38
2023-04-26T18:30:40.817Z,8.42
2023-04-26T18:31:41.381Z,8.38
2023-04-26T18:32:41.405Z,8.33
2023-04-26T18:33:41.516Z,8.26
2023-04-26T18:34:40.384Z,8.28
2023-04-26T18:35:40.464Z,8.24
2023-04-26T18:36:40.504Z,8.12
2023-04-26T18:37:40.470Z,8.10
2023-04-26T18:38:41.334Z,8.10
2023-04-26T18:39:40.672Z,8.15
2023-04-26T18:40:40.554Z,8.15
2023-04-26T18:41:40.565Z,8.09
2023-04-26T18:42:40.484Z,8.08
2023-04-26T18:43:40.263Z,8.09
2023-04-26T18:44:40.664Z,8.13
2023-04-26T18:46:15.657Z,8.01
2023-04-26T18:46:40.624Z,7.87
2023-04-26T18:47:40.639Z,7.90
2023-04-26T18:48:40.237Z,7.98
2023-04-26T18:49:40.444Z,7.85
2023-04-26T18:50:40.121Z,7.61
2023-04-26T18:51:40.299Z,7.54
2023-04-26T18:52:40.120Z,7.38
2023-04-26T18:53:40.129Z,7.20
2023-04-26T18:54:41.114Z,7.20
2023-04-26T18:55:40.124Z,7.02
2023-04-26T18:56:40.342Z,7.13
2023-04-26T18:57:40.124Z,7.03
2023-04-26T18:58:40.132Z,6.99
2023-04-26T18:59:40.365Z,6.97
2023-04-26T19:00:40.331Z,6.97
2023-04-26T19:01:41.846Z,6.99
2023-04-26T19:02:40.224Z,6.88
2023-04-26T19:03:40.203Z,6.88
2023-04-26T19:04:40.273Z,6.79
2023-04-26T19:05:40.122Z,6.74
2023-04-26T19:06:40.054Z,6.88
2023-04-26T19:07:40.028Z,6.87
2023-04-26T19:08:39.975Z,6.84
2023-04-26T19:09:53.093Z,6.89
2023-04-26T19:10:41.945Z,6.93
2023-04-26T19:11:40.051Z,6.99
2023-04-26T19:12:40.731Z,6.96
2023-04-26T19:13:40.050Z,6.88
2023-04-26T19:14:40.013Z,6.87
2023-04-26T19:15:41.150Z,6.81
2023-04-26T19:16:40.170Z,6.79
2023-04-26T19:17:40.180Z,6.84
2023-04-26T19:18:39.944Z,6.84
2023-04-26T19:19:39.873Z,6.78
2023-04-26T19:20:40.115Z,6.69
2023-04-26T19:21:39.868Z,6.66
2023-04-26T19:22:40.642Z,6.60
2023-04-26T19:23:39.806Z,6.66
2023-04-26T19:24:39.839Z,6.62
2023-04-26T19:25:40.078Z,6.72
2023-04-26T19:26:40.319Z,6.66
2023-04-26T19:27:39.916Z,6.66
2023-04-26T19:28:39.907Z,6.54
2023-04-26T19:29:40.554Z,6.66
2023-04-26T19:30:39.777Z,6.74
2023-04-26T19:31:41.912Z,6.79
2023-04-26T19:32:39.835Z,6.77
2023-04-26T19:33:39.768Z,6.84
2023-04-26T19:34:39.771Z,6.72
2023-04-26T19:35:39.729Z,6.60
2023-04-26T19:36:39.885Z,6.66
2023-04-26T19:37:39.767Z,6.46
2023-04-26T19:38:39.864Z,6.51
2023-04-26T19:39:39.748Z,6.42
2023-04-26T19:40:39.725Z,6.48
2023-04-26T19:41:39.825Z,6.44
2023-04-26T19:42:39.726Z,6.42
2023-04-26T19:43:39.759Z,6.41
2023-04-26T19:44:39.659Z,6.59
2023-04-26T19:45:39.670Z,6.49
2023-04-26T19:46:39.729Z,6.54
2023-04-26T19:47:40.679Z,6.49
2023-04-26T19:48:39.616Z,6.48
2023-04-26T19:49:39.640Z,6.41
2023-04-26T19:50:39.616Z,6.41
2023-04-26T19:51:43.242Z,6.39
2023-04-26T19:52:39.665Z,6.31
2023-04-26T19:53:39.531Z,6.44
2023-04-26T19:54:39.611Z,6.36
2023-04-26T19:55:39.531Z,6.35
2023-04-26T19:56:39.547Z,6.39
2023-04-26T19:57:39.626Z,6.35
2023-04-26T19:58:40.145Z,6.38
2023-04-26T19:59:39.561Z,6.36
2023-04-26T20:00:39.547Z,6.39
2023-04-26T20:01:39.721Z,6.36
2023-04-26T20:02:39.870Z,6.35
2023-04-26T20:03:39.743Z,6.31
2023-04-26T20:04:40.636Z,6.35
2023-04-26T20:05:39.472Z,6.22
2023-04-26T20:06:39.501Z,6.26
2023-04-26T20:07:39.480Z,6.31
2023-04-26T20:08:39.444Z,6.35
2023-04-26T20:09:39.463Z,6.27
2023-04-26T20:10:40.196Z,6.33
2023-04-26T20:11:39.548Z,6.19
2023-04-26T20:12:39.429Z,6.17
2023-04-26T20:13:39.354Z,6.08
2023-04-26T20:14:39.536Z,6.11
2023-04-26T20:15:40.045Z,6.12
2023-04-26T20:16:39.489Z,6.09
2023-04-26T20:17:40.410Z,6.09
2023-04-26T20:18:39.543Z,6.04
2023-04-26T20:19:39.757Z,6.01
2023-04-26T20:20:39.469Z,6.08
2023-04-26T20:21:39.435Z,6.12
2023-04-26T20:22:39.261Z,6.05
2023-04-26T20:23:39.288Z,6.05
2023-04-26T20:24:39.450Z,6.08
2023-04-26T20:25:39.385Z,6.16
2023-04-26T20:26:39.246Z,6.12
2023-04-26T20:27:39.177Z,6.14
2023-04-26T20:28:40.111Z,6.36
2023-04-26T20:29:40.147Z,6.26
2023-04-26T20:30:39.188Z,6.41
2023-04-26T20:31:39.167Z,6.36
2023-04-26T20:32:39.127Z,6.35
2023-04-26T20:33:39.090Z,6.35
2023-04-26T20:34:39.081Z,6.14
2023-04-26T20:35:39.864Z,6.22
2023-04-26T20:36:39.057Z,6.08
2023-04-26T20:37:39.103Z,5.90
2023-04-26T20:38:39.101Z,5.97
2023-04-26T20:39:39.091Z,5.94
2023-04-26T20:40:39.097Z,5.90
2023-04-26T20:41:39.007Z,5.90
2023-04-26T20:42:39.057Z,5.89
2023-04-26T20:43:39.010Z,5.86
2023-04-26T20:44:38.985Z,5.80
2023-04-26T20:45:39.013Z,5.73
2023-04-26T20:46:38.992Z,5.68
2023-04-26T20:47:39.500Z,5.68
2023-04-26T20:48:38.933Z,5.68
2023-04-26T20:49:38.991Z,5.66
2023-04-26T20:50:38.939Z,5.59
2023-04-26T20:51:39.843Z,5.51
2023-04-26T20:52:38.906Z,5.61
2023-04-26T20:53:38.912Z,5.57
2023-04-26T20:54:38.896Z,5.54
2023-04-26T20:55:38.858Z,5.54
2023-04-26T20:56:39.552Z,5.57
2023-04-26T20:57:38.860Z,5.50
2023-04-26T20:58:38.853Z,5.65
2023-04-26T20:59:38.867Z,5.44
2023-04-26T21:00:38.852Z,5.54
2023-04-26T21:01:38.864Z,5.51
2023-04-26T21:02:39.001Z,5.61
2023-04-26T21:03:39.262Z,5.47
2023-04-26T21:04:39.118Z,5.51
2023-04-26T21:05:38.832Z,5.50
2023-04-26T21:06:38.800Z,5.50
2023-04-26T21:07:38.809Z,5.57
2023-04-26T21:08:38.780Z,5.59
2023-04-26T21:09:38.745Z,5.56
2023-04-26T21:10:38.799Z,5.54
2023-04-26T21:11:38.740Z,5.56
2023-04-26T21:12:38.768Z,5.61
2023-04-26T21:13:38.704Z,5.56
2023-04-26T21:14:38.757Z,5.59
2023-04-26T21:15:38.735Z,5.64
2023-04-26T21:16:38.704Z,5.53
2023-04-26T21:17:38.723Z,5.64
2023-04-26T21:18:38.673Z,5.59
2023-04-26T21:19:38.809Z,5.57
2023-04-26T21:20:38.667Z,5.69
2023-04-26T21:21:38.666Z,5.62
2023-04-26T21:22:38.632Z,5.59
2023-04-26T21:23:38.649Z,5.64
2023-04-26T21:24:38.624Z,5.47
2023-04-26T21:25:38.660Z,5.53
2023-04-26T21:26:38.646Z,5.65
2023-04-26T21:27:38.648Z,5.69
2023-04-26T21:28:38.712Z,5.80
2023-04-26T21:29:38.579Z,5.71
2023-04-26T21:30:39.360Z,5.68
2023-04-26T21:31:38.643Z,5.72
2023-04-26T21:32:38.529Z,5.65
2023-04-26T21:33:38.520Z,5.66
2023-04-26T21:34:38.522Z,5.68
2023-04-26T21:35:38.541Z,5.71
2023-04-26T21:36:38.525Z,5.69
2023-04-26T21:37:38.615Z,5.66
2023-04-26T21:38:38.476Z,5.69
2023-04-26T21:39:38.520Z,5.69
2023-04-26T21:40:38.484Z,5.73
2023-04-26T21:41:38.428Z,5.66
2023-04-26T21:42:39.122Z,5.82
2023-04-26T21:43:38.431Z,5.83
2023-04-26T21:44:38.458Z,5.89
2023-04-26T21:45:38.449Z,5.80
2023-04-26T21:46:38.422Z,5.98
2023-04-26T21:47:38.413Z,6.01
2023-04-26T21:48:38.359Z,5.97
2023-04-26T21:49:38.470Z,6.05
2023-04-26T21:50:38.380Z,5.94
2023-04-26T21:51:38.337Z,6.08
2023-04-26T21:52:38.317Z,5.99
2023-04-26T21:53:38.361Z,6.04
2023-04-26T21:54:38.328Z,5.94
2023-04-26T21:55:38.304Z,6.07
2023-04-26T21:56:38.313Z,5.84
2023-04-26T21:57:38.319Z,5.82
2023-04-26T21:58:38.840Z,5.65
2023-04-26T21:59:38.251Z,5.56
2023-04-26T22:00:38.427Z,5.50
2023-04-26T22:01:38.251Z,5.44
2023-04-26T22:02:38.367Z,5.33
2023-04-26T22:03:38.356Z,5.32
2023-04-26T22:04:38.235Z,5.32
2023-04-26T22:05:38.287Z,5.30
2023-04-26T22:06:38.213Z,5.33
2023-04-26T22:07:38.263Z,5.33
2023-04-26T22:08:38.160Z,5.23
2023-04-26T22:09:38.162Z,5.17
2023-04-26T22:10:38.198Z,5.18
2023-04-26T22:11:38.163Z,5.12
2023-04-26T22:12:38.997Z,5.10
2023-04-26T22:13:38.169Z,5.21
2023-04-26T22:14:38.129Z,5.20
2023-04-26T22:15:38.151Z,5.28
2023-04-26T22:16:38.107Z,5.26
2023-04-26T22:17:38.140Z,5.44
2023-04-26T22:18:38.071Z,5.41
2023-04-26T22:19:38.981Z,5.53
2023-04-26T22:20:38.089Z,5.61
2023-04-26T22:21:38.274Z,5.61
2023-04-26T22:22:38.045Z,5.59
2023-04-26T22:23:38.072Z,5.69
2023-04-26T22:24:38.044Z,5.65
2023-04-26T22:25:38.045Z,5.68
2023-04-26T22:26:37.991Z,5.72
2023-04-26T22:27:38.004Z,5.75
2023-04-26T22:28:38.059Z,5.76
2023-04-26T22:29:37.986Z,5.80
2023-04-26T22:30:37.996Z,5.89
2023-04-26T22:31:38.042Z,5.83
2023-04-26T22:32:38.069Z,5.83
2023-04-26T22:33:38.006Z,5.93
2023-04-26T22:34:37.949Z,5.91
2023-04-26T22:35:37.997Z,5.82
2023-04-26T22:36:37.915Z,6.02
2023-04-26T22:37:37.872Z,5.99
2023-04-26T22:38:37.885Z,5.99
2023-04-26T22:39:37.885Z,5.97
2023-04-26T22:40:38.570Z,5.97
2023-04-26T22:41:37.850Z,5.93
2023-04-26T22:42:37.852Z,5.90
2023-04-26T22:43:37.854Z,5.87
2023-04-26T22:44:37.838Z,5.83
2023-04-26T22:45:37.841Z,5.75
2023-04-26T22:46:37.860Z,5.80
2023-04-26T22:47:37.933Z,5.82
2023-04-26T22:48:37.799Z,5.83
2023-04-26T22:49:37.816Z,5.76
2023-04-26T22:50:37.757Z,5.80
2023-04-26T22:51:39.582Z,5.80
2023-04-26T22:52:37.742Z,5.73
2023-04-26T22:53:37.882Z,5.66
2023-04-26T22:54:37.744Z,5.80
2023-04-26T22:55:37.749Z,5.69
2023-04-26T22:56:38.082Z,5.65
2023-04-26T22:57:37.756Z,5.69
2023-04-26T22:58:37.744Z,5.64
2023-04-26T22:59:37.698Z,5.62
2023-04-26T23:00:37.712Z,5.69
2023-04-26T23:01:37.730Z,5.69
2023-04-26T23:02:37.717Z,5.69
2023-04-26T23:03:37.805Z,5.73
2023-04-26T23:04:37.729Z,5.71
2023-04-26T23:05:37.751Z,5.62
2023-04-26T23:06:37.615Z,5.65
2023-04-26T23:07:37.599Z,5.64
2023-04-26T23:08:37.588Z,5.66
2023-04-26T23:09:37.675Z,5.71
2023-04-26T23:10:37.571Z,5.65
2023-04-26T23:11:37.572Z,5.61
2023-04-26T23:12:37.616Z,5.71
2023-04-26T23:13:37.559Z,5.61
2023-04-26T23:14:37.717Z,5.62
2023-04-26T23:15:37.516Z,5.61
2023-04-26T23:16:37.615Z,5.73
2023-04-26T23:17:37.535Z,5.73
2023-04-26T23:18:37.479Z,5.68
2023-04-26T23:19:37.515Z,5.64
2023-04-26T23:20:37.517Z,5.61
2023-04-26T23:21:37.522Z,5.47
2023-04-26T23:22:37.419Z,5.36
2023-04-26T23:23:37.458Z,5.29
2023-04-26T23:24:37.641Z,5.15
2023-04-26T23:25:37.430Z,5.11
2023-04-26T23:26:37.941Z,5.15
2023-04-26T23:27:37.435Z,5.15
2023-04-26T23:28:37.440Z,5.21
2023-04-26T23:29:37.404Z,5.26
2023-04-26T23:30:37.411Z,5.36
2023-04-26T23:31:37.422Z,5.38
2023-04-26T23:32:37.414Z,5.36
2023-04-26T23:33:37.407Z,5.36
2023-04-26T23:34:37.383Z,5.44
2023-04-26T23:35:37.354Z,5.44
2023-04-26T23:36:37.390Z,5.50
2023-04-26T23:37:39.832Z,5.56
2023-04-26T23:38:37.300Z,5.53
2023-04-26T23:39:37.319Z,5.50
2023-04-26T23:40:37.303Z,5.56
2023-04-26T23:41:37.301Z,5.51
2023-04-26T23:42:37.479Z,5.50
2023-04-26T23:43:37.232Z,5.53
2023-04-26T23:44:37.266Z,5.56
2023-04-26T23:45:37.266Z,5.54
2023-04-26T23:46:37.318Z,5.48
2023-04-26T23:47:37.307Z,5.51
2023-04-26T23:48:37.242Z,5.51
2023-04-26T23:49:37.251Z,5.54
2023-04-26T23:50:37.198Z,5.54
2023-04-26T23:51:37.251Z,5.54
2023-04-26T23:52:37.168Z,5.54
2023-04-26T23:53:37.198Z,5.53
2023-04-26T23:54:37.157Z,5.56
2023-04-26T23:55:37.152Z,5.69
2023-04-26T23:56:38.072Z,5.54
2023-04-26T23:57:37.117Z,5.61
2023-04-26T23:58:37.239Z,5.57
2023-04-26T23:59:37.094Z,5.57
